Netaji Subhash Chandra Bose International Airport
VECC : now visible

Airfield :











YOU CAN JOIN US ON...

 
LOGIN :

Register | Disclaimer

   EN    FR    IT 

 









Legend :    VFR   Marginal VFR   IFR   Intensive IFR   Very Intensive IFR
Visi :
Ceiling :
>= 8 km
>= 3000ft
5 to 8 km
1000 to 3000 ft
1500m to 5 km
500 to 1000 ft
800 to 1500m
200 to 500 ft
< 800m
< 200 ft
Symbols :   Thunderstorms  Fog  Heavy snow  Heavy precipitations  Wind > 20 kt






- Airport Elevation : 16 ft
- IATA code : CCU


VECC - Netaji Subhash Chandra Bose International

CURRENT METAR :
  • 022200Z 21008KT 3200 TS SCT018 FEW025CB BKN090 29/27 Q0999 TEMPO TL2300 1500 TSRA

EXPIRED METARs :
  • 022130Z 21006KT 3200 TS SCT018 FEW025CB BKN090 29/28 Q0999 TEMPO TL2300 1500 TSRA
  • 022100Z 22006KT 3200 TS SCT018 FEW025CB BKN090 30/28 Q0999 TEMPO TL2300 1500 TSRA
  • 022030Z 00000KT 3200 HZ SCT018 FEW030CB BKN100 30/28 Q1000 NOSIG
  • 022000Z 00000KT 3200 HZ SCT020 SCT100 30/28 Q1000 NOSIG
  • 021930Z 18004KT 3200 HZ FEW020 SCT100 30/28 Q1000 NOSIG
  • 021900Z 18004KT 3200 HZ FEW020 SCT100 30/28 Q1000 NOSIG

TAF TAF VECC
Valid from the 02 at 21:00 until the 03 at 06:00 UTC


022000Z 0221/0306 00000KT 3000 HZ SCT018 SCT100
BECMG 0300/0302 2500 HZ
BECMG 0303/0305 25005KT 4000 HZ
VECF FIR / Asia



MET'MAP, your aeronautical weather chart ! - Copyright ORBIFLY December 2007 - Disclaimer

ORBIFLY MET'MAP TEAM :

Programming & Development : Alexandra Zaïnal
Concept & original design : Baudouin d'Aumeries
Assistance for programming : Marc-Olivier Méhu
Technical & hardware support : Manuel Goepfert

Contact : metmap@orbifly.com




SOURCES & CREDITS :

   NOAA       Earth
Advisory